createdAt,value
2018-02-10T00:03:12.000Z,27.836
2018-02-10T00:13:12.000Z,27.855
2018-02-10T00:23:12.000Z,27.688
2018-02-10T00:33:12.000Z,27.684
2018-02-10T00:43:12.000Z,27.66
2018-02-10T00:53:12.000Z,27.581
2018-02-10T01:03:13.000Z,27.611
2018-02-10T01:13:12.000Z,27.521
2018-02-10T01:23:12.000Z,27.605
2018-02-10T01:33:12.000Z,27.625
2018-02-10T01:43:12.000Z,27.578
2018-02-10T01:53:12.000Z,27.697
2018-02-10T02:03:12.000Z,27.595
2018-02-10T02:13:12.000Z,27.636
2018-02-10T02:23:12.000Z,27.743
2018-02-10T02:33:12.000Z,27.643
2018-02-10T02:43:12.000Z,27.848
2018-02-10T02:53:12.000Z,27.771
2018-02-10T03:03:12.000Z,27.975
2018-02-10T03:13:12.000Z,27.821
2018-02-10T03:23:12.000Z,27.701
2018-02-10T03:33:12.000Z,27.449
2018-02-10T03:43:13.000Z,27.871
2018-02-10T03:53:12.000Z,27.63
2018-02-10T04:03:13.000Z,27.673
2018-02-10T04:13:13.000Z,27.943
2018-02-10T04:23:13.000Z,27.756
2018-02-10T04:33:13.000Z,27.56
2018-02-10T04:43:13.000Z,27.928
2018-02-10T04:53:13.000Z,27.883
2018-02-10T05:03:13.000Z,27.926
2018-02-10T05:13:13.000Z,27.514
2018-02-10T05:23:13.000Z,27.469
2018-02-10T05:33:13.000Z,27.447
2018-02-10T05:43:13.000Z,27.294
2018-02-10T05:53:13.000Z,27.056
2018-02-10T06:03:13.000Z,26.936
2018-02-10T06:13:13.000Z,26.773
2018-02-10T06:23:13.000Z,26.631
2018-02-10T06:33:13.000Z,26.664
2018-02-10T06:43:13.000Z,26.479
2018-02-10T06:53:13.000Z,26.457
2018-02-10T07:03:13.000Z,26.305
2018-02-10T07:13:13.000Z,26.186
2018-02-10T07:23:13.000Z,26.512
2018-02-10T07:33:13.000Z,26.067
2018-02-10T07:43:13.000Z,26.284
2018-02-10T07:53:13.000Z,25.86
2018-02-10T08:03:13.000Z,25.925
2018-02-10T08:13:13.000Z,26.492
2018-02-10T08:23:13.000Z,25.958
2018-02-10T08:33:13.000Z,25.947
2018-02-10T08:43:13.000Z,26.035
2018-02-10T08:53:13.000Z,26.1
2018-02-10T09:03:13.000Z,26.295
2018-02-10T09:13:13.000Z,25.971
2018-02-10T09:23:16.000Z,26.374
2018-02-10T09:33:13.000Z,26.338
2018-02-10T09:43:13.000Z,26.526
2018-02-10T09:53:13.000Z,26.255
2018-02-10T10:03:13.000Z,26.505
2018-02-10T10:13:13.000Z,26.657
2018-02-10T10:23:13.000Z,26.538
2018-02-10T10:33:13.000Z,26.53
2018-02-10T10:43:13.000Z,26.791
2018-02-10T10:53:13.000Z,26.816
2018-02-10T11:03:17.000Z,29.351
2018-02-10T11:13:13.000Z,29.366
2018-02-10T11:23:13.000Z,29.148
2018-02-10T11:33:13.000Z,29.148
2018-02-10T11:43:13.000Z,29.027
2018-02-10T11:53:17.000Z,28.995
2018-02-10T12:03:13.000Z,29.163
2018-02-10T12:13:13.000Z,29.089
2018-02-10T12:23:14.000Z,29.1
2018-02-10T12:33:14.000Z,28.967
2018-02-10T12:43:14.000Z,29.066
2018-02-10T12:53:14.000Z,28.945
2018-02-10T13:03:14.000Z,28.815
2018-02-10T13:13:14.000Z,29.161
2018-02-10T13:23:14.000Z,29.252
2018-02-10T13:33:14.000Z,29.132
2018-02-10T13:43:14.000Z,29.089
2018-02-10T13:53:14.000Z,29.69
2018-02-10T14:03:14.000Z,29.421
2018-02-10T14:13:14.000Z,29.486
2018-02-10T14:23:14.000Z,29.165
2018-02-10T14:33:14.000Z,29.208
2018-02-10T14:43:14.000Z,29.098
2018-02-10T14:53:14.000Z,31.021
2018-02-10T15:03:14.000Z,32.493
2018-02-10T15:13:16.000Z,33.35
2018-02-10T15:23:14.000Z,33.801
2018-02-10T15:33:14.000Z,34.774
2018-02-10T15:43:18.000Z,34.794
2018-02-10T15:53:14.000Z,34.804
2018-02-10T16:03:14.000Z,35.452
2018-02-10T16:13:14.000Z,35.167
2018-02-10T16:23:14.000Z,35.621
2018-02-10T16:33:14.000Z,35.339
2018-02-10T16:43:15.000Z,36.332
2018-02-10T16:53:14.000Z,36.414
2018-02-10T17:03:14.000Z,36.588
2018-02-10T17:13:14.000Z,36.345
2018-02-10T17:23:14.000Z,36.769
2018-02-10T17:33:14.000Z,37.198
2018-02-10T17:43:14.000Z,37.53
2018-02-10T17:53:14.000Z,37.449
2018-02-10T18:03:15.000Z,37.821
2018-02-10T18:13:14.000Z,38.119
2018-02-10T18:23:14.000Z,38.293
2018-02-10T18:33:14.000Z,38.371
2018-02-10T18:43:14.000Z,37.635
2018-02-10T18:53:14.000Z,37.834
2018-02-10T19:03:14.000Z,37.75
2018-02-10T19:13:14.000Z,36.852
2018-02-10T19:23:14.000Z,36.657
2018-02-10T19:33:14.000Z,37.092
2018-02-10T19:43:14.000Z,37.072
2018-02-10T19:53:16.000Z,37.236
2018-02-10T20:03:15.000Z,36.728
2018-02-10T20:13:14.000Z,36.904
2018-02-10T20:23:14.000Z,37.196
2018-02-10T20:33:14.000Z,37.5
2018-02-10T20:43:15.000Z,37.469
2018-02-10T20:53:15.000Z,38.849
2018-02-10T21:03:15.000Z,37.492
2018-02-10T21:13:15.000Z,37.731
2018-02-10T21:23:15.000Z,37.35
2018-02-10T21:33:15.000Z,37.706
2018-02-10T21:43:15.000Z,37.769
2018-02-10T21:53:15.000Z,37.527
2018-02-10T22:03:15.000Z,37.255
2018-02-10T22:13:15.000Z,37.014
2018-02-10T22:23:15.000Z,36.701
2018-02-10T22:33:15.000Z,37.292
2018-02-10T22:43:15.000Z,37.006
2018-02-10T22:53:15.000Z,37.046
2018-02-10T23:03:15.000Z,36.75
2018-02-10T23:13:15.000Z,36.756
2018-02-10T23:23:15.000Z,36.579
2018-02-10T23:33:15.000Z,36.858
2018-02-10T23:43:15.000Z,36.79
2018-02-10T23:53:15.000Z,36.785
